createdAt,value
2022-08-23T00:02:25.349Z,25.30
2022-08-23T00:05:07.590Z,24.60
2022-08-23T00:07:41.839Z,23.88
2022-08-23T00:10:11.806Z,22.85
2022-08-23T00:12:39.707Z,23.80
2022-08-23T00:15:09.085Z,23.35
2022-08-23T00:17:37.191Z,24.80
2022-08-23T00:20:08.722Z,23.25
2022-08-23T00:22:36.817Z,24.92
2022-08-23T00:25:05.590Z,23.98
2022-08-23T00:27:33.612Z,24.58
2022-08-23T00:30:01.362Z,24.05
2022-08-23T00:32:32.033Z,24.15
2022-08-23T00:35:00.532Z,24.08
2022-08-23T00:37:29.632Z,23.52
2022-08-23T00:39:56.831Z,24.35
2022-08-23T00:42:52.917Z,23.75
2022-08-23T00:45:46.660Z,24.13
2022-08-23T00:48:14.673Z,24.15
2022-08-23T00:50:52.699Z,25.65
2022-08-23T00:53:44.140Z,25.40
2022-08-23T00:56:14.123Z,23.45
2022-08-23T00:58:42.989Z,24.08
2022-08-23T01:01:10.256Z,23.42
2022-08-23T01:03:40.184Z,25.00
2022-08-23T01:06:32.668Z,25.48
2022-08-23T01:09:04.136Z,22.67
2022-08-23T01:11:40.639Z,23.60
2022-08-23T01:14:15.981Z,25.25
2022-08-23T01:16:50.815Z,24.55
2022-08-23T01:19:25.397Z,24.95
2022-08-23T01:22:05.288Z,24.67
2022-08-23T01:25:07.227Z,24.27
2022-08-23T01:27:21.002Z,23.90
2022-08-23T01:29:48.465Z,25.17
2022-08-23T01:32:16.668Z,24.60
2022-08-23T01:34:44.756Z,24.85
2022-08-23T01:37:16.807Z,25.23
2022-08-23T01:39:44.363Z,24.50
2022-08-23T01:42:12.556Z,24.88
2022-08-23T01:44:40.547Z,24.92
2022-08-23T01:47:07.966Z,25.10
2022-08-23T01:49:35.490Z,23.48
2022-08-23T01:52:03.306Z,23.95
2022-08-23T01:54:30.625Z,24.98
2022-08-23T01:56:57.894Z,24.13
2022-08-23T01:59:26.146Z,25.77
2022-08-23T02:01:54.873Z,25.02
2022-08-23T02:04:22.841Z,26.27
2022-08-23T02:06:50.298Z,23.85
2022-08-23T02:09:21.632Z,25.15
2022-08-23T02:11:55.355Z,24.13
2022-08-23T02:14:22.660Z,24.85
2022-08-23T02:17:04.592Z,24.65
2022-08-23T02:22:06.502Z,23.88
2022-08-23T02:24:34.589Z,25.20
2022-08-23T02:27:05.272Z,27.40
2022-08-23T02:29:39.125Z,25.92
2022-08-23T02:32:07.340Z,25.98
2022-08-23T02:34:37.302Z,25.50
2022-08-23T02:37:06.023Z,24.67
2022-08-23T02:39:33.066Z,25.80
2022-08-23T02:42:01.192Z,25.52
2022-08-23T02:44:31.555Z,24.27
2022-08-23T02:46:58.663Z,24.42
2022-08-23T02:49:25.908Z,23.42
2022-08-23T02:51:53.000Z,25.00
2022-08-23T02:54:20.164Z,25.42
2022-08-23T02:56:47.595Z,23.15
2022-08-23T02:59:15.104Z,23.65
2022-08-23T03:01:42.189Z,24.00
2022-08-23T03:04:32.225Z,24.92
2022-08-23T03:06:59.370Z,24.98
2022-08-23T03:09:27.726Z,21.73
2022-08-23T03:11:54.694Z,23.45
2022-08-23T03:14:22.335Z,23.40
2022-08-23T03:16:49.771Z,24.08
2022-08-23T03:19:17.208Z,23.77
2022-08-23T03:21:45.230Z,24.75
2022-08-23T03:24:15.278Z,25.05
2022-08-23T03:26:44.505Z,24.92
2022-08-23T03:29:13.108Z,25.85
2022-08-23T03:31:57.161Z,24.80
2022-08-23T03:34:25.992Z,24.85
2022-08-23T03:36:53.925Z,24.05
2022-08-23T03:39:20.958Z,24.20
2022-08-23T03:41:48.660Z,24.25
2022-08-23T03:44:15.877Z,24.85
2022-08-23T03:46:44.453Z,23.77
2022-08-23T03:49:12.053Z,22.48
2022-08-23T03:51:53.344Z,25.05
2022-08-23T03:54:22.763Z,23.20
2022-08-23T03:57:00.728Z,24.08
2022-08-23T03:59:33.111Z,23.15
2022-08-23T04:02:01.698Z,23.83
2022-08-23T04:04:30.450Z,23.38
2022-08-23T04:07:30.518Z,22.38
2022-08-23T04:09:58.743Z,24.75
2022-08-23T04:12:31.262Z,25.40
2022-08-23T04:14:58.569Z,22.27
2022-08-23T04:17:26.326Z,24.27
2022-08-23T04:19:53.518Z,23.63
2022-08-23T04:22:21.492Z,22.63
2022-08-23T04:24:49.285Z,23.33
2022-08-23T04:27:17.376Z,22.63
2022-08-23T04:29:46.108Z,23.48
2022-08-23T04:32:15.133Z,24.98
2022-08-23T04:34:55.418Z,23.88
2022-08-23T04:37:23.488Z,23.98
2022-08-23T04:40:09.159Z,23.48
2022-08-23T04:42:41.874Z,22.27
2022-08-23T04:45:09.640Z,23.88
2022-08-23T04:47:41.511Z,23.40
2022-08-23T04:50:10.396Z,22.33
2022-08-23T04:52:51.562Z,22.90
2022-08-23T04:55:20.632Z,21.88
2022-08-23T04:57:52.300Z,22.42
2022-08-23T05:00:27.903Z,21.58
2022-08-23T05:02:57.118Z,23.63
2022-08-23T05:05:25.464Z,22.27
2022-08-23T05:07:52.505Z,24.20
2022-08-23T05:10:20.112Z,22.25
2022-08-23T05:12:51.318Z,23.65
2022-08-23T05:15:20.875Z,22.38
2022-08-23T05:17:54.027Z,21.30
2022-08-23T05:20:21.689Z,22.65
2022-08-23T05:22:50.675Z,22.63
2022-08-23T05:25:53.267Z,21.55
2022-08-23T05:28:31.148Z,21.10
2022-08-23T05:31:03.498Z,21.13
2022-08-23T05:33:37.526Z,21.10
2022-08-23T05:36:06.026Z,20.33
2022-08-23T05:38:34.473Z,20.90
2022-08-23T05:41:02.493Z,20.80
2022-08-23T05:43:33.610Z,21.25
2022-08-23T05:46:05.007Z,19.83
2022-08-23T05:48:38.199Z,19.40
2022-08-23T05:51:18.368Z,19.80
2022-08-23T05:53:48.011Z,18.95
2022-08-23T05:56:36.147Z,18.92
2022-08-23T05:59:06.853Z,19.60
2022-08-23T06:01:40.681Z,19.08
2022-08-23T06:04:13.728Z,18.00
2022-08-23T06:06:43.832Z,18.02
2022-08-23T06:09:14.917Z,19.05
2022-08-23T06:11:47.376Z,19.83
2022-08-23T06:14:15.424Z,19.25
2022-08-23T06:16:50.789Z,18.45
2022-08-23T06:19:24.219Z,18.13
2022-08-23T06:22:09.918Z,17.38
2022-08-23T06:24:41.067Z,17.55
2022-08-23T06:27:13.904Z,17.88
2022-08-23T06:29:41.759Z,16.45
2022-08-23T06:32:27.517Z,17.25
2022-08-23T06:35:14.891Z,17.50
2022-08-23T06:38:10.947Z,18.30
2022-08-23T06:40:47.208Z,18.35
2022-08-23T06:43:26.521Z,18.25
2022-08-23T06:46:19.209Z,17.70
2022-08-23T06:48:47.667Z,18.38
2022-08-23T06:51:45.046Z,18.83
2022-08-23T06:54:26.546Z,19.35
2022-08-23T06:57:20.895Z,17.92
2022-08-23T07:00:26.523Z,17.05
2022-08-23T07:03:00.432Z,17.52
2022-08-23T07:05:53.950Z,17.35
2022-08-23T07:08:25.081Z,16.23
2022-08-23T07:10:52.418Z,17.92
2022-08-23T07:13:19.721Z,18.27
2022-08-23T07:15:50.187Z,17.80
2022-08-23T07:18:20.330Z,17.58
2022-08-23T07:20:47.412Z,16.90
2022-08-23T07:23:15.824Z,18.20
2022-08-23T07:25:43.985Z,17.70
2022-08-23T07:28:14.754Z,16.38
2022-08-23T07:30:45.330Z,18.67
2022-08-23T07:33:14.228Z,16.67
2022-08-23T07:36:00.391Z,17.60
2022-08-23T07:38:30.521Z,17.05
2022-08-23T07:40:59.627Z,17.27
2022-08-23T07:43:26.921Z,17.40
2022-08-23T07:45:55.201Z,16.73
2022-08-23T07:48:43.315Z,17.33
2022-08-23T07:51:16.106Z,16.23
2022-08-23T07:53:46.302Z,17.00
2022-08-23T07:56:18.692Z,15.13
2022-08-23T07:59:06.081Z,16.40
2022-08-23T08:01:36.080Z,15.93
2022-08-23T08:04:05.193Z,17.92
2022-08-23T08:07:04.800Z,15.35
2022-08-23T08:09:38.249Z,14.30
2022-08-23T08:12:05.627Z,13.93
2022-08-23T08:14:33.700Z,14.30
2022-08-23T08:17:03.725Z,12.98
2022-08-23T08:19:53.455Z,13.50
2022-08-23T08:22:58.343Z,13.73
2022-08-23T08:25:44.394Z,12.95
2022-08-23T08:28:16.152Z,12.90
2022-08-23T08:30:43.786Z,13.35
2022-08-23T08:33:11.272Z,13.52
2022-08-23T08:35:38.889Z,14.40
2022-08-23T08:38:06.746Z,13.38
2022-08-23T08:40:40.227Z,12.95
2022-08-23T08:43:34.899Z,13.60
2022-08-23T08:46:05.432Z,12.80
2022-08-23T08:48:42.348Z,13.93
2022-08-23T08:51:50.855Z,12.82
2022-08-23T08:54:25.002Z,13.20
2022-08-23T08:56:59.631Z,13.70
2022-08-23T08:59:56.425Z,11.90
2022-08-23T09:02:32.419Z,11.88
2022-08-23T09:05:10.215Z,13.20
2022-08-23T09:08:04.651Z,12.25
2022-08-23T09:10:50.696Z,12.60
2022-08-23T09:13:46.248Z,11.95
2022-08-23T09:16:28.871Z,12.07
2022-08-23T09:18:57.190Z,12.85
2022-08-23T09:21:24.952Z,12.57
2022-08-23T09:24:00.805Z,13.35
2022-08-23T09:26:48.416Z,12.07
2022-08-23T09:29:29.671Z,13.13
2022-08-23T09:32:02.480Z,12.07
2022-08-23T09:34:38.174Z,11.63
2022-08-23T09:37:10.023Z,11.43
2022-08-23T09:39:45.074Z,11.60
2022-08-23T09:43:03.791Z,12.10
2022-08-23T09:45:37.127Z,10.55
2022-08-23T09:48:12.255Z,11.55
2022-08-23T09:50:54.943Z,10.13
2022-08-23T09:53:41.128Z,10.18
2022-08-23T09:56:15.556Z,10.00
2022-08-23T09:58:47.051Z,9.45
2022-08-23T10:01:23.121Z,9.82
2022-08-23T10:04:07.295Z,9.30
2022-08-23T10:06:34.557Z,9.00
2022-08-23T10:09:07.973Z,9.60
2022-08-23T10:11:46.411Z,10.27
2022-08-23T10:14:17.817Z,9.68
2022-08-23T10:16:59.033Z,8.15
2022-08-23T10:19:40.883Z,8.63
2022-08-23T10:22:29.516Z,9.20
2022-08-23T10:25:33.355Z,8.57
2022-08-23T10:28:35.769Z,8.60
2022-08-23T10:31:42.754Z,8.77
2022-08-23T10:34:25.953Z,9.10
2022-08-23T10:37:06.218Z,8.77
2022-08-23T10:42:39.269Z,9.00
2022-08-23T10:45:17.401Z,8.88
2022-08-23T10:48:29.548Z,9.32
2022-08-23T10:51:17.878Z,9.02
2022-08-23T10:54:16.369Z,8.48
2022-08-23T10:56:50.995Z,8.75
2022-08-23T10:59:24.267Z,8.75
2022-08-23T11:02:35.746Z,8.80
2022-08-23T11:05:27.880Z,8.35
2022-08-23T11:08:11.485Z,8.27
2022-08-23T11:10:40.326Z,7.50
2022-08-23T11:13:13.953Z,6.55
2022-08-23T11:16:05.480Z,7.22
2022-08-23T11:18:48.725Z,6.88
2022-08-23T11:21:25.931Z,6.30
2022-08-23T11:24:22.486Z,6.15
2022-08-23T11:26:52.318Z,6.68
2022-08-23T11:29:22.547Z,7.90
2022-08-23T11:32:17.350Z,7.25
2022-08-23T11:34:57.974Z,7.78
2022-08-23T11:37:47.830Z,8.45
2022-08-23T11:40:18.396Z,6.47
2022-08-23T11:42:53.213Z,7.70
2022-08-23T11:45:35.904Z,8.00
2022-08-23T11:48:22.912Z,8.05
2022-08-23T11:51:08.353Z,7.75
2022-08-23T11:53:49.510Z,7.40
2022-08-23T11:56:28.437Z,7.43
2022-08-23T11:59:23.800Z,7.63
2022-08-23T12:01:51.241Z,7.47
2022-08-23T12:04:47.360Z,7.82
2022-08-23T12:07:14.647Z,6.93
2022-08-23T12:09:41.684Z,7.20
2022-08-23T12:12:14.366Z,7.55
2022-08-23T12:14:45.410Z,7.00
2022-08-23T12:17:12.431Z,7.25
2022-08-23T12:19:48.898Z,7.40
2022-08-23T12:22:19.965Z,7.22
2022-08-23T12:24:54.455Z,7.22
2022-08-23T12:27:33.763Z,7.30
2022-08-23T12:30:11.003Z,6.95
2022-08-23T12:32:50.127Z,8.40
2022-08-23T12:35:30.356Z,7.50
2022-08-23T12:38:32.713Z,7.05
2022-08-23T12:41:23.134Z,6.88
2022-08-23T12:44:08.145Z,7.13
2022-08-23T12:46:35.315Z,6.63
2022-08-23T12:49:02.698Z,6.70
2022-08-23T12:51:30.200Z,6.93
2022-08-23T12:53:57.348Z,6.95
2022-08-23T12:56:31.921Z,6.75
2022-08-23T13:01:35.867Z,6.80
2022-08-23T13:04:14.699Z,6.75
2022-08-23T13:06:55.187Z,7.07
2022-08-23T13:09:30.174Z,6.60
2022-08-23T13:11:59.105Z,7.30
2022-08-23T13:14:45.525Z,6.32
2022-08-23T13:17:27.543Z,7.20
2022-08-23T13:20:18.913Z,6.47
2022-08-23T13:23:01.104Z,7.10
2022-08-23T13:25:33.017Z,6.45
2022-08-23T13:28:28.441Z,6.30
2022-08-23T13:31:11.111Z,6.38
2022-08-23T13:33:40.993Z,6.57
2022-08-23T13:36:21.380Z,7.00
2022-08-23T13:38:49.660Z,5.72
2022-08-23T13:41:30.546Z,6.40
2022-08-23T13:43:58.065Z,6.20
2022-08-23T13:46:28.520Z,7.15
2022-08-23T13:49:18.346Z,7.20
2022-08-23T13:52:38.081Z,5.93
2022-08-23T13:54:50.737Z,6.72
2022-08-23T13:57:21.781Z,6.15
2022-08-23T13:59:53.233Z,6.35
2022-08-23T14:02:22.691Z,6.63
2022-08-23T14:04:49.800Z,6.55
2022-08-23T14:07:17.792Z,5.97
2022-08-23T14:09:45.463Z,6.47
2022-08-23T14:12:19.208Z,7.25
2022-08-23T14:14:47.355Z,6.28
2022-08-23T14:17:16.621Z,6.28
2022-08-23T14:22:35.079Z,6.10
2022-08-23T14:25:02.236Z,6.38
2022-08-23T14:27:29.844Z,6.38
2022-08-23T14:29:56.867Z,6.57
2022-08-23T14:32:24.416Z,6.50
2022-08-23T14:34:52.809Z,6.38
2022-08-23T14:38:00.635Z,6.85
2022-08-23T14:40:09.029Z,6.32
2022-08-23T14:42:37.448Z,6.38
2022-08-23T14:45:05.587Z,7.30
2022-08-23T14:47:35.447Z,6.15
2022-08-23T14:50:05.769Z,6.65
2022-08-23T14:52:33.434Z,6.93
2022-08-23T14:55:00.390Z,6.70
2022-08-23T14:57:27.464Z,6.25
2022-08-23T14:59:56.095Z,5.80
2022-08-23T15:02:25.510Z,5.97
2022-08-23T15:04:54.649Z,6.43
2022-08-23T15:07:22.303Z,6.15
2022-08-23T15:09:51.519Z,6.40
2022-08-23T15:15:12.843Z,6.10
2022-08-23T15:18:09.327Z,6.10
2022-08-23T15:20:38.534Z,6.33
2022-08-23T15:23:08.039Z,6.00
2022-08-23T15:25:39.804Z,5.80
2022-08-23T15:28:13.455Z,7.13
2022-08-23T15:30:42.784Z,6.47
2022-08-23T15:33:10.744Z,7.90
2022-08-23T15:35:44.972Z,6.20
2022-08-23T15:38:15.804Z,6.35
2022-08-23T15:40:43.550Z,6.47
2022-08-23T15:43:10.946Z,6.10
2022-08-23T15:45:38.491Z,6.45
2022-08-23T15:48:28.101Z,6.30
2022-08-23T15:50:55.821Z,6.15
2022-08-23T15:53:23.010Z,6.07
2022-08-23T15:55:51.031Z,6.10
2022-08-23T15:58:25.069Z,6.43
2022-08-23T16:00:53.536Z,5.93
2022-08-23T16:03:22.589Z,6.75
2022-08-23T16:05:52.964Z,6.15
2022-08-23T16:08:32.405Z,6.25
2022-08-23T16:10:59.801Z,6.28
2022-08-23T16:13:27.476Z,6.47
2022-08-23T16:15:54.587Z,7.07
2022-08-23T16:18:21.632Z,5.85
2022-08-23T16:20:48.915Z,6.47
2022-08-23T16:23:21.238Z,7.55
2022-08-23T16:25:48.180Z,8.23
2022-08-23T16:28:15.480Z,8.57
2022-08-23T16:30:42.725Z,7.53
2022-08-23T16:33:09.904Z,8.25
2022-08-23T16:35:37.707Z,8.63
2022-08-23T16:38:04.859Z,8.60
2022-08-23T16:40:31.941Z,8.80
2022-08-23T16:42:59.106Z,9.40
2022-08-23T16:45:26.651Z,15.38
2022-08-23T16:47:53.931Z,15.35
2022-08-23T16:50:20.901Z,13.60
2022-08-23T16:52:47.948Z,14.10
2022-08-23T16:55:15.035Z,16.88
2022-08-23T16:57:42.325Z,16.63
2022-08-23T17:00:14.407Z,16.83
2022-08-23T17:02:42.230Z,17.17
2022-08-23T17:05:11.959Z,18.05
2022-08-23T17:07:39.599Z,19.50
2022-08-23T17:10:08.487Z,21.95
2022-08-23T17:12:38.134Z,22.70
2022-08-23T17:15:06.741Z,26.23
2022-08-23T17:17:33.870Z,26.67
2022-08-23T17:20:00.932Z,29.25
2022-08-23T17:22:28.064Z,33.17
2022-08-23T17:24:55.051Z,36.50
2022-08-23T17:27:22.143Z,35.90
2022-08-23T17:29:49.353Z,36.20
2022-08-23T17:32:18.703Z,37.30
2022-08-23T17:34:45.719Z,40.17
2022-08-23T17:37:18.576Z,41.13
2022-08-23T17:39:46.216Z,38.72
2022-08-23T17:42:13.663Z,40.28
2022-08-23T17:44:40.819Z,41.33
2022-08-23T17:47:15.028Z,40.30
2022-08-23T17:49:44.610Z,43.85
2022-08-23T17:52:12.328Z,42.83
2022-08-23T17:54:40.401Z,43.22
2022-08-23T17:57:09.562Z,44.60
2022-08-23T17:59:37.657Z,42.17
2022-08-23T18:02:05.503Z,49.90
2022-08-23T18:04:34.620Z,53.08
2022-08-23T18:07:02.195Z,49.72
2022-08-23T18:09:29.538Z,48.83
2022-08-23T18:11:56.772Z,50.33
2022-08-23T18:14:23.877Z,50.03
2022-08-23T18:16:51.556Z,51.72
2022-08-23T18:19:18.693Z,52.22
2022-08-23T18:21:47.038Z,52.80
2022-08-23T18:24:14.516Z,52.67
2022-08-23T18:27:01.740Z,52.88
2022-08-23T18:29:33.019Z,50.67
2022-08-23T18:32:00.561Z,51.42
2022-08-23T18:34:28.323Z,50.30
2022-08-23T18:36:56.092Z,52.90
2022-08-23T18:39:27.647Z,56.10
2022-08-23T18:42:01.398Z,55.90
2022-08-23T18:44:29.399Z,52.47
2022-08-23T18:46:56.551Z,53.95
2022-08-23T18:49:24.183Z,53.35
2022-08-23T18:51:51.277Z,53.60
2022-08-23T18:54:18.692Z,54.30
2022-08-23T18:56:46.045Z,55.25
2022-08-23T18:59:13.329Z,56.55
2022-08-23T19:01:42.535Z,55.25
2022-08-23T19:04:10.842Z,53.45
2022-08-23T19:06:40.186Z,53.47
2022-08-23T19:09:08.790Z,56.17
2022-08-23T19:11:39.641Z,53.28
2022-08-23T19:14:07.413Z,55.85
2022-08-23T19:16:37.166Z,52.78
2022-08-23T19:19:05.273Z,58.20
2022-08-23T19:21:33.778Z,54.55
2022-08-23T19:24:02.032Z,56.85
2022-08-23T19:26:34.413Z,52.22
2022-08-23T19:29:09.354Z,54.63
2022-08-23T19:31:42.975Z,53.05
2022-08-23T19:34:12.737Z,55.00
2022-08-23T19:36:51.163Z,54.20
2022-08-23T19:39:26.924Z,54.08
2022-08-23T19:41:54.411Z,50.70
2022-08-23T19:44:21.644Z,52.72
2022-08-23T19:46:48.956Z,51.75
2022-08-23T19:49:16.774Z,51.50
2022-08-23T19:51:43.996Z,50.50
2022-08-23T19:54:12.924Z,51.72
2022-08-23T19:56:48.522Z,58.90
2022-08-23T19:59:20.494Z,54.85
2022-08-23T20:01:49.320Z,52.17
2022-08-23T20:04:17.189Z,49.20
2022-08-23T20:06:44.378Z,50.50
2022-08-23T20:09:12.066Z,50.00
2022-08-23T20:11:39.806Z,48.70
2022-08-23T20:14:08.023Z,49.38
2022-08-23T20:16:36.392Z,48.85
2022-08-23T20:19:06.666Z,50.05
2022-08-23T20:21:34.092Z,47.00
2022-08-23T20:24:10.451Z,45.05
2022-08-23T20:26:54.052Z,48.38
2022-08-23T20:29:22.972Z,48.50
2022-08-23T20:31:56.227Z,45.83
2022-08-23T20:34:27.091Z,47.67
2022-08-23T20:36:56.388Z,47.75
2022-08-23T20:39:24.795Z,47.90
2022-08-23T20:41:53.024Z,46.13
2022-08-23T20:44:24.430Z,46.22
2022-08-23T20:46:55.341Z,45.58
2022-08-23T20:49:25.203Z,46.55
2022-08-23T20:51:52.331Z,47.13
2022-08-23T20:54:20.155Z,46.92
2022-08-23T20:56:50.707Z,46.00
2022-08-23T20:59:18.605Z,46.60
2022-08-23T21:01:45.773Z,45.63
2022-08-23T21:04:15.047Z,47.72
2022-08-23T21:06:48.218Z,48.30
2022-08-23T21:09:19.533Z,45.42
2022-08-23T21:11:48.137Z,46.40
2022-08-23T21:14:18.555Z,46.55
2022-08-23T21:16:47.876Z,44.83
2022-08-23T21:19:15.930Z,47.47
2022-08-23T21:21:43.311Z,45.42
2022-08-23T21:24:20.857Z,45.35
2022-08-23T21:26:50.920Z,46.78
2022-08-23T21:29:18.263Z,45.65
2022-08-23T21:31:46.237Z,45.05
2022-08-23T21:34:23.754Z,44.50
2022-08-23T21:36:55.610Z,44.50
2022-08-23T21:39:23.395Z,44.42
2022-08-23T21:41:51.107Z,42.92
2022-08-23T21:44:21.083Z,44.88
2022-08-23T21:46:49.004Z,43.58
2022-08-23T21:49:16.749Z,43.60
2022-08-23T21:51:45.550Z,43.45
2022-08-23T21:54:13.437Z,44.78
2022-08-23T21:56:41.366Z,44.38
2022-08-23T21:59:11.496Z,44.45
2022-08-23T22:01:38.859Z,42.55
2022-08-23T22:04:08.563Z,44.13
2022-08-23T22:06:37.192Z,43.17
2022-08-23T22:09:07.028Z,42.13
2022-08-23T22:11:41.486Z,41.83
2022-08-23T22:14:10.783Z,42.80
2022-08-23T22:16:38.160Z,41.60
2022-08-23T22:19:05.585Z,41.80
2022-08-23T22:21:35.424Z,42.05
2022-08-23T22:24:02.968Z,41.58
2022-08-23T22:26:30.345Z,40.55
2022-08-23T22:28:57.395Z,39.80
2022-08-23T22:31:24.875Z,41.22
2022-08-23T22:33:52.925Z,39.55
2022-08-23T22:36:22.832Z,36.55
2022-08-23T22:38:51.399Z,38.40
2022-08-23T22:41:22.056Z,36.55
2022-08-23T22:43:49.172Z,36.00
2022-08-23T22:46:18.082Z,37.08
2022-08-23T22:48:45.212Z,35.55
2022-08-23T22:51:15.145Z,36.05
2022-08-23T22:53:45.647Z,37.40
2022-08-23T22:56:15.320Z,37.17
2022-08-23T22:58:43.135Z,36.15
2022-08-23T23:01:13.047Z,37.20
2022-08-23T23:03:42.076Z,34.78
2022-08-23T23:06:09.813Z,36.50
2022-08-23T23:08:37.142Z,35.55
2022-08-23T23:11:07.675Z,34.25
2022-08-23T23:13:35.059Z,35.55
2022-08-23T23:16:04.122Z,32.95
2022-08-23T23:18:31.219Z,34.28
2022-08-23T23:21:00.786Z,35.08
2022-08-23T23:23:29.272Z,34.83
2022-08-23T23:25:56.543Z,34.13
2022-08-23T23:28:23.556Z,35.47
2022-08-23T23:30:52.526Z,32.05
2022-08-23T23:33:21.201Z,34.42
2022-08-23T23:35:49.006Z,32.50
2022-08-23T23:38:16.850Z,33.28
2022-08-23T23:40:44.543Z,30.73
2022-08-23T23:43:13.068Z,30.98
2022-08-23T23:45:41.411Z,30.40
2022-08-23T23:48:10.235Z,31.73
2022-08-23T23:50:45.149Z,30.52
2022-08-23T23:53:14.109Z,30.73
2022-08-23T23:55:42.057Z,31.02
2022-08-23T23:58:10.361Z,29.08
